sensor_id;sensor_type;location;lat;lon;timestamp;temperature;humidity
26035;DHT22;13809;48.632;11.576;2022-11-15T00:01:09;8.60;45.60
26035;DHT22;13809;48.632;11.576;2022-11-15T00:06:15;8.60;45.70
26035;DHT22;13809;48.632;11.576;2022-11-15T00:11:18;8.50;45.60
26035;DHT22;13809;48.632;11.576;2022-11-15T00:16:22;8.50;45.60
26035;DHT22;13809;48.632;11.576;2022-11-15T00:21:27;8.50;45.60
26035;DHT22;13809;48.632;11.576;2022-11-15T00:26:30;8.50;45.50
26035;DHT22;13809;48.632;11.576;2022-11-15T00:31:33;8.40;45.50
26035;DHT22;13809;48.632;11.576;2022-11-15T00:36:37;8.50;45.40
26035;DHT22;13809;48.632;11.576;2022-11-15T00:41:40;8.40;45.10
26035;DHT22;13809;48.632;11.576;2022-11-15T00:46:44;8.40;45.10
26035;DHT22;13809;48.632;11.576;2022-11-15T00:51:48;8.40;45.10
26035;DHT22;13809;48.632;11.576;2022-11-15T00:56:51;8.40;44.90
26035;DHT22;13809;48.632;11.576;2022-11-15T01:01:54;8.30;44.80
26035;DHT22;13809;48.632;11.576;2022-11-15T01:06:59;8.20;44.70
26035;DHT22;13809;48.632;11.576;2022-11-15T01:12:02;8.20;44.70
26035;DHT22;13809;48.632;11.576;2022-11-15T01:17:06;8.20;45.00
26035;DHT22;13809;48.632;11.576;2022-11-15T01:22:10;8.10;44.80
26035;DHT22;13809;48.632;11.576;2022-11-15T01:27:13;8.10;44.80
26035;DHT22;13809;48.632;11.576;2022-11-15T01:32:16;8.00;44.80
26035;DHT22;13809;48.632;11.576;2022-11-15T01:37:21;8.00;44.70
26035;DHT22;13809;48.632;11.576;2022-11-15T01:42:24;8.00;44.40
26035;DHT22;13809;48.632;11.576;2022-11-15T01:47:30;7.90;44.50
26035;DHT22;13809;48.632;11.576;2022-11-15T01:52:36;7.90;44.50
26035;DHT22;13809;48.632;11.576;2022-11-15T01:57:42;7.80;44.60
26035;DHT22;13809;48.632;11.576;2022-11-15T02:02:45;7.80;44.60
26035;DHT22;13809;48.632;11.576;2022-11-15T02:07:50;7.80;44.70
26035;DHT22;13809;48.632;11.576;2022-11-15T02:12:55;7.80;44.60
26035;DHT22;13809;48.632;11.576;2022-11-15T02:18:09;7.80;44.60
26035;DHT22;13809;48.632;11.576;2022-11-15T02:23:46;7.80;44.50
26035;DHT22;13809;48.632;11.576;2022-11-15T02:29:00;7.80;44.40
26035;DHT22;13809;48.632;11.576;2022-11-15T02:34:11;7.80;44.20
26035;DHT22;13809;48.632;11.576;2022-11-15T02:39:25;7.70;44.10
26035;DHT22;13809;48.632;11.576;2022-11-15T02:44:35;7.70;44.20
26035;DHT22;13809;48.632;11.576;2022-11-15T02:49:43;7.70;44.00
26035;DHT22;13809;48.632;11.576;2022-11-15T02:54:53;7.70;43.90
26035;DHT22;13809;48.632;11.576;2022-11-15T03:00:04;7.60;43.70
26035;DHT22;13809;48.632;11.576;2022-11-15T03:05:15;7.50;43.90
26035;DHT22;13809;48.632;11.576;2022-11-15T03:10:24;7.50;44.10
26035;DHT22;13809;48.632;11.576;2022-11-15T03:15:31;7.40;44.10
26035;DHT22;13809;48.632;11.576;2022-11-15T03:20:36;7.40;44.20
26035;DHT22;13809;48.632;11.576;2022-11-15T03:25:42;7.40;44.40
26035;DHT22;13809;48.632;11.576;2022-11-15T03:30:48;7.40;44.40
26035;DHT22;13809;48.632;11.576;2022-11-15T03:35:54;7.30;44.20
26035;DHT22;13809;48.632;11.576;2022-11-15T03:41:00;7.30;44.80
26035;DHT22;13809;48.632;11.576;2022-11-15T03:46:07;7.30;44.10
26035;DHT22;13809;48.632;11.576;2022-11-15T03:51:15;7.30;44.10
26035;DHT22;13809;48.632;11.576;2022-11-15T03:56:19;7.20;44.10
26035;DHT22;13809;48.632;11.576;2022-11-15T04:01:22;7.20;44.20
26035;DHT22;13809;48.632;11.576;2022-11-15T04:06:26;7.10;44.10
26035;DHT22;13809;48.632;11.576;2022-11-15T04:11:29;7.10;44.10
26035;DHT22;13809;48.632;11.576;2022-11-15T04:16:33;7.00;44.40
26035;DHT22;13809;48.632;11.576;2022-11-15T04:21:44;7.00;44.50
26035;DHT22;13809;48.632;11.576;2022-11-15T04:27:05;7.00;44.40
26035;DHT22;13809;48.632;11.576;2022-11-15T04:32:08;7.00;44.10
26035;DHT22;13809;48.632;11.576;2022-11-15T04:37:13;7.00;44.10
26035;DHT22;13809;48.632;11.576;2022-11-15T04:42:17;7.00;44.00
26035;DHT22;13809;48.632;11.576;2022-11-15T04:47:20;7.00;44.10
26035;DHT22;13809;48.632;11.576;2022-11-15T04:52:25;6.90;44.10
26035;DHT22;13809;48.632;11.576;2022-11-15T04:57:28;6.90;44.10
26035;DHT22;13809;48.632;11.576;2022-11-15T05:02:31;6.90;44.10
26035;DHT22;13809;48.632;11.576;2022-11-15T05:07:50;6.90;44.10
26035;DHT22;13809;48.632;11.576;2022-11-15T05:12:53;6.80;44.00
26035;DHT22;13809;48.632;11.576;2022-11-15T05:17:59;6.80;44.20
26035;DHT22;13809;48.632;11.576;2022-11-15T05:23:04;6.80;44.20
26035;DHT22;13809;48.632;11.576;2022-11-15T05:28:07;6.80;44.20
26035;DHT22;13809;48.632;11.576;2022-11-15T05:33:11;6.80;44.20
26035;DHT22;13809;48.632;11.576;2022-11-15T05:38:15;6.70;44.10
26035;DHT22;13809;48.632;11.576;2022-11-15T05:43:18;6.70;44.10
26035;DHT22;13809;48.632;11.576;2022-11-15T05:48:22;6.70;44.10
26035;DHT22;13809;48.632;11.576;2022-11-15T05:53:26;6.60;44.10
26035;DHT22;13809;48.632;11.576;2022-11-15T05:58:31;6.60;44.00
26035;DHT22;13809;48.632;11.576;2022-11-15T06:03:37;6.50;44.30
26035;DHT22;13809;48.632;11.576;2022-11-15T06:08:41;6.50;44.30
26035;DHT22;13809;48.632;11.576;2022-11-15T06:13:45;6.50;44.40
26035;DHT22;13809;48.632;11.576;2022-11-15T06:18:48;6.50;44.40
26035;DHT22;13809;48.632;11.576;2022-11-15T06:23:52;6.50;44.40
26035;DHT22;13809;48.632;11.576;2022-11-15T06:28:56;6.50;44.90
26035;DHT22;13809;48.632;11.576;2022-11-15T06:33:59;6.60;44.70
26035;DHT22;13809;48.632;11.576;2022-11-15T06:39:04;6.60;44.60
26035;DHT22;13809;48.632;11.576;2022-11-15T06:44:07;6.60;44.10
26035;DHT22;13809;48.632;11.576;2022-11-15T06:49:13;6.60;44.20
26035;DHT22;13809;48.632;11.576;2022-11-15T06:54:18;6.60;44.00
26035;DHT22;13809;48.632;11.576;2022-11-15T06:59:22;6.60;44.00
26035;DHT22;13809;48.632;11.576;2022-11-15T07:04:25;6.60;44.00
26035;DHT22;13809;48.632;11.576;2022-11-15T07:09:30;6.50;44.00
26035;DHT22;13809;48.632;11.576;2022-11-15T07:14:33;6.50;44.30
26035;DHT22;13809;48.632;11.576;2022-11-15T07:19:36;6.50;44.40
26035;DHT22;13809;48.632;11.576;2022-11-15T07:24:41;6.50;44.60
26035;DHT22;13809;48.632;11.576;2022-11-15T07:29:44;6.60;44.90
26035;DHT22;13809;48.632;11.576;2022-11-15T07:34:47;6.60;45.00
26035;DHT22;13809;48.632;11.576;2022-11-15T07:39:51;6.70;45.30
26035;DHT22;13809;48.632;11.576;2022-11-15T07:44:54;6.70;45.50
26035;DHT22;13809;48.632;11.576;2022-11-15T07:49:58;6.80;46.30
26035;DHT22;13809;48.632;11.576;2022-11-15T07:55:02;6.90;45.90
26035;DHT22;13809;48.632;11.576;2022-11-15T08:00:07;7.10;46.10
26035;DHT22;13809;48.632;11.576;2022-11-15T08:05:10;7.20;46.20
26035;DHT22;13809;48.632;11.576;2022-11-15T08:10:15;7.30;46.20
26035;DHT22;13809;48.632;11.576;2022-11-15T08:15:20;7.50;46.50
26035;DHT22;13809;48.632;11.576;2022-11-15T08:20:25;7.70;46.80
26035;DHT22;13809;48.632;11.576;2022-11-15T08:25:32;7.80;47.10
26035;DHT22;13809;48.632;11.576;2022-11-15T08:30:37;8.10;47.20
26035;DHT22;13809;48.632;11.576;2022-11-15T08:35:43;8.30;47.20
26035;DHT22;13809;48.632;11.576;2022-11-15T08:40:48;8.50;47.10
26035;DHT22;13809;48.632;11.576;2022-11-15T08:45:51;8.60;47.20
26035;DHT22;13809;48.632;11.576;2022-11-15T08:50:55;8.80;47.00
26035;DHT22;13809;48.632;11.576;2022-11-15T08:56:00;9.00;47.00
26035;DHT22;13809;48.632;11.576;2022-11-15T09:01:04;9.20;47.00
26035;DHT22;13809;48.632;11.576;2022-11-15T09:06:07;9.30;47.10
26035;DHT22;13809;48.632;11.576;2022-11-15T09:11:12;9.50;47.30
26035;DHT22;13809;48.632;11.576;2022-11-15T09:16:16;9.70;47.50
26035;DHT22;13809;48.632;11.576;2022-11-15T09:21:19;9.90;47.70
26035;DHT22;13809;48.632;11.576;2022-11-15T09:26:24;10.20;47.20
26035;DHT22;13809;48.632;11.576;2022-11-15T09:31:27;10.40;46.90
26035;DHT22;13809;48.632;11.576;2022-11-15T09:36:31;10.70;46.80
26035;DHT22;13809;48.632;11.576;2022-11-15T09:42:02;11.00;46.80
26035;DHT22;13809;48.632;11.576;2022-11-15T09:47:41;11.30;46.50
26035;DHT22;13809;48.632;11.576;2022-11-15T09:52:49;11.50;46.40
26035;DHT22;13809;48.632;11.576;2022-11-15T09:57:59;11.80;46.80
26035;DHT22;13809;48.632;11.576;2022-11-15T10:03:10;12.00;46.30
26035;DHT22;13809;48.632;11.576;2022-11-15T10:13:43;12.40;45.50
26035;DHT22;13809;48.632;11.576;2022-11-15T10:18:52;12.60;45.60
26035;DHT22;13809;48.632;11.576;2022-11-15T10:23:59;12.70;44.90
26035;DHT22;13809;48.632;11.576;2022-11-15T10:29:03;12.90;45.60
26035;DHT22;13809;48.632;11.576;2022-11-15T10:34:13;13.00;45.00
26035;DHT22;13809;48.632;11.576;2022-11-15T10:39:16;13.00;43.90
26035;DHT22;13809;48.632;11.576;2022-11-15T10:44:24;13.10;45.10
26035;DHT22;13809;48.632;11.576;2022-11-15T10:49:28;13.20;44.80
26035;DHT22;13809;48.632;11.576;2022-11-15T10:54:35;13.40;45.20
26035;DHT22;13809;48.632;11.576;2022-11-15T10:59:44;13.60;44.80
26035;DHT22;13809;48.632;11.576;2022-11-15T11:04:51;13.70;44.00
26035;DHT22;13809;48.632;11.576;2022-11-15T11:10:00;13.80;44.10
26035;DHT22;13809;48.632;11.576;2022-11-15T11:15:11;14.00;44.40
26035;DHT22;13809;48.632;11.576;2022-11-15T11:20:20;14.10;44.40
26035;DHT22;13809;48.632;11.576;2022-11-15T11:25:33;14.30;44.00
26035;DHT22;13809;48.632;11.576;2022-11-15T11:30:46;14.40;44.00
26035;DHT22;13809;48.632;11.576;2022-11-15T11:35:58;14.60;44.00
26035;DHT22;13809;48.632;11.576;2022-11-15T11:41:10;14.70;44.10
26035;DHT22;13809;48.632;11.576;2022-11-15T11:46:54;14.80;44.20
26035;DHT22;13809;48.632;11.576;2022-11-15T11:52:02;14.90;43.70
26035;DHT22;13809;48.632;11.576;2022-11-15T11:57:12;15.00;43.70
26035;DHT22;13809;48.632;11.576;2022-11-15T12:02:25;15.10;43.70
26035;DHT22;13809;48.632;11.576;2022-11-15T12:07:33;15.20;43.00
26035;DHT22;13809;48.632;11.576;2022-11-15T12:12:44;15.40;43.10
26035;DHT22;13809;48.632;11.576;2022-11-15T12:17:52;15.50;42.50
26035;DHT22;13809;48.632;11.576;2022-11-15T12:22:59;15.60;42.80
26035;DHT22;13809;48.632;11.576;2022-11-15T12:28:07;15.80;42.90
26035;DHT22;13809;48.632;11.576;2022-11-15T12:33:36;15.90;41.40
26035;DHT22;13809;48.632;11.576;2022-11-15T12:38:57;16.00;41.60
26035;DHT22;13809;48.632;11.576;2022-11-15T12:44:01;16.10;41.10
26035;DHT22;13809;48.632;11.576;2022-11-15T12:49:10;16.20;42.30
26035;DHT22;13809;48.632;11.576;2022-11-15T12:59:56;16.30;40.90
26035;DHT22;13809;48.632;11.576;2022-11-15T13:10:49;16.40;40.50
26035;DHT22;13809;48.632;11.576;2022-11-15T13:15:55;16.50;41.10
26035;DHT22;13809;48.632;11.576;2022-11-15T13:20:59;16.50;40.90
26035;DHT22;13809;48.632;11.576;2022-11-15T13:26:12;16.60;41.40
26035;DHT22;13809;48.632;11.576;2022-11-15T13:31:25;16.60;39.70
26035;DHT22;13809;48.632;11.576;2022-11-15T13:36:31;16.70;40.00
26035;DHT22;13809;48.632;11.576;2022-11-15T13:41:45;16.70;40.50
26035;DHT22;13809;48.632;11.576;2022-11-15T13:46:49;16.70;39.70
26035;DHT22;13809;48.632;11.576;2022-11-15T13:52:05;16.70;41.00
26035;DHT22;13809;48.632;11.576;2022-11-15T13:57:14;16.80;40.90
26035;DHT22;13809;48.632;11.576;2022-11-15T14:02:21;16.80;39.80
26035;DHT22;13809;48.632;11.576;2022-11-15T14:07:28;16.80;40.60
26035;DHT22;13809;48.632;11.576;2022-11-15T14:12:34;16.70;40.70
26035;DHT22;13809;48.632;11.576;2022-11-15T14:17:38;16.80;40.30
26035;DHT22;13809;48.632;11.576;2022-11-15T14:22:53;16.70;40.70
26035;DHT22;13809;48.632;11.576;2022-11-15T14:28:16;16.70;39.80
26035;DHT22;13809;48.632;11.576;2022-11-15T14:33:32;16.60;40.10
26035;DHT22;13809;48.632;11.576;2022-11-15T14:38:36;16.60;40.60
26035;DHT22;13809;48.632;11.576;2022-11-15T14:43:40;16.50;40.90
26035;DHT22;13809;48.632;11.576;2022-11-15T14:48:43;16.50;40.80
26035;DHT22;13809;48.632;11.576;2022-11-15T14:53:47;16.30;40.80
26035;DHT22;13809;48.632;11.576;2022-11-15T14:58:51;16.30;41.10
26035;DHT22;13809;48.632;11.576;2022-11-15T15:03:56;16.20;40.70
26035;DHT22;13809;48.632;11.576;2022-11-15T15:09:00;16.10;40.70
26035;DHT22;13809;48.632;11.576;2022-11-15T15:14:04;16.00;40.60
26035;DHT22;13809;48.632;11.576;2022-11-15T15:19:08;15.80;40.50
26035;DHT22;13809;48.632;11.576;2022-11-15T15:24:14;15.60;40.70
26035;DHT22;13809;48.632;11.576;2022-11-15T15:29:19;15.50;40.60
26035;DHT22;13809;48.632;11.576;2022-11-15T15:34:22;15.40;40.80
26035;DHT22;13809;48.632;11.576;2022-11-15T15:39:25;15.30;40.90
26035;DHT22;13809;48.632;11.576;2022-11-15T15:44:30;15.10;40.80
26035;DHT22;13809;48.632;11.576;2022-11-15T15:49:33;15.00;40.80
26035;DHT22;13809;48.632;11.576;2022-11-15T15:54:36;14.80;40.90
26035;DHT22;13809;48.632;11.576;2022-11-15T15:59:40;14.60;41.00
26035;DHT22;13809;48.632;11.576;2022-11-15T16:04:44;14.50;40.90
26035;DHT22;13809;48.632;11.576;2022-11-15T16:09:47;14.40;40.90
26035;DHT22;13809;48.632;11.576;2022-11-15T16:15:08;14.20;41.00
26035;DHT22;13809;48.632;11.576;2022-11-15T16:20:23;14.10;40.80
26035;DHT22;13809;48.632;11.576;2022-11-15T16:25:26;13.90;40.80
26035;DHT22;13809;48.632;11.576;2022-11-15T16:30:31;13.80;41.10
26035;DHT22;13809;48.632;11.576;2022-11-15T16:35:35;13.70;41.10
26035;DHT22;13809;48.632;11.576;2022-11-15T16:40:38;13.60;41.10
26035;DHT22;13809;48.632;11.576;2022-11-15T16:45:43;13.50;41.20
26035;DHT22;13809;48.632;11.576;2022-11-15T16:50:46;13.50;41.20
26035;DHT22;13809;48.632;11.576;2022-11-15T16:55:49;13.40;41.20
26035;DHT22;13809;48.632;11.576;2022-11-15T17:00:55;13.30;40.90
26035;DHT22;13809;48.632;11.576;2022-11-15T17:05:58;13.20;40.90
26035;DHT22;13809;48.632;11.576;2022-11-15T17:11:04;13.10;40.90
26035;DHT22;13809;48.632;11.576;2022-11-15T17:16:11;13.00;41.00
26035;DHT22;13809;48.632;11.576;2022-11-15T17:21:16;12.90;41.00
26035;DHT22;13809;48.632;11.576;2022-11-15T17:26:19;12.90;41.30
26035;DHT22;13809;48.632;11.576;2022-11-15T17:31:33;12.80;41.50
26035;DHT22;13809;48.632;11.576;2022-11-15T17:36:36;12.80;41.40
26035;DHT22;13809;48.632;11.576;2022-11-15T17:41:39;12.80;41.50
26035;DHT22;13809;48.632;11.576;2022-11-15T17:46:44;12.80;41.50
26035;DHT22;13809;48.632;11.576;2022-11-15T17:51:47;12.80;41.50
26035;DHT22;13809;48.632;11.576;2022-11-15T17:56:51;12.70;41.20
26035;DHT22;13809;48.632;11.576;2022-11-15T18:01:55;12.60;41.20
26035;DHT22;13809;48.632;11.576;2022-11-15T18:06:58;12.60;41.50
26035;DHT22;13809;48.632;11.576;2022-11-15T18:12:02;12.60;41.50
26035;DHT22;13809;48.632;11.576;2022-11-15T18:17:06;12.50;41.60
26035;DHT22;13809;48.632;11.576;2022-11-15T18:22:09;12.50;41.60
26035;DHT22;13809;48.632;11.576;2022-11-15T18:27:12;12.40;41.60
26035;DHT22;13809;48.632;11.576;2022-11-15T18:32:17;12.40;41.60
26035;DHT22;13809;48.632;11.576;2022-11-15T18:37:20;12.40;41.70
26035;DHT22;13809;48.632;11.576;2022-11-15T18:42:23;12.40;42.00
26035;DHT22;13809;48.632;11.576;2022-11-15T18:47:28;12.30;42.00
26035;DHT22;13809;48.632;11.576;2022-11-15T18:52:32;12.30;42.00
26035;DHT22;13809;48.632;11.576;2022-11-15T18:57:35;12.30;42.00
26035;DHT22;13809;48.632;11.576;2022-11-15T19:02:40;12.20;41.90
26035;DHT22;13809;48.632;11.576;2022-11-15T19:07:46;12.20;41.90
26035;DHT22;13809;48.632;11.576;2022-11-15T19:12:50;12.20;41.90
26035;DHT22;13809;48.632;11.576;2022-11-15T19:17:55;12.20;41.90
26035;DHT22;13809;48.632;11.576;2022-11-15T19:22:58;12.10;41.80
26035;DHT22;13809;48.632;11.576;2022-11-15T19:28:01;12.10;41.80
26035;DHT22;13809;48.632;11.576;2022-11-15T19:33:05;12.10;41.80
26035;DHT22;13809;48.632;11.576;2022-11-15T19:38:08;12.00;41.70
26035;DHT22;13809;48.632;11.576;2022-11-15T19:43:14;12.00;41.70
26035;DHT22;13809;48.632;11.576;2022-11-15T19:48:18;11.90;41.60
26035;DHT22;13809;48.632;11.576;2022-11-15T19:53:22;11.90;41.60
26035;DHT22;13809;48.632;11.576;2022-11-15T19:58:27;11.80;41.80
26035;DHT22;13809;48.632;11.576;2022-11-15T20:03:33;11.80;41.90
26035;DHT22;13809;48.632;11.576;2022-11-15T20:08:37;11.80;42.00
26035;DHT22;13809;48.632;11.576;2022-11-15T20:13:41;11.80;41.90
26035;DHT22;13809;48.632;11.576;2022-11-15T20:18:46;11.80;41.80
26035;DHT22;13809;48.632;11.576;2022-11-15T20:23:49;11.80;41.60
26035;DHT22;13809;48.632;11.576;2022-11-15T20:28:53;11.70;41.70
26035;DHT22;13809;48.632;11.576;2022-11-15T20:34:03;11.70;41.80
26035;DHT22;13809;48.632;11.576;2022-11-15T20:39:06;11.60;42.00
26035;DHT22;13809;48.632;11.576;2022-11-15T20:44:09;11.60;42.00
26035;DHT22;13809;48.632;11.576;2022-11-15T20:49:14;11.60;41.90
26035;DHT22;13809;48.632;11.576;2022-11-15T20:54:17;11.50;42.10
26035;DHT22;13809;48.632;11.576;2022-11-15T20:59:20;11.50;42.10
26035;DHT22;13809;48.632;11.576;2022-11-15T21:04:26;11.50;42.10
26035;DHT22;13809;48.632;11.576;2022-11-15T21:09:30;11.40;42.20
26035;DHT22;13809;48.632;11.576;2022-11-15T21:14:51;11.40;42.00
26035;DHT22;13809;48.632;11.576;2022-11-15T21:19:55;11.40;42.00
26035;DHT22;13809;48.632;11.576;2022-11-15T21:24:58;11.30;42.20
26035;DHT22;13809;48.632;11.576;2022-11-15T21:30:02;11.20;42.10
26035;DHT22;13809;48.632;11.576;2022-11-15T21:35:07;11.20;42.10
26035;DHT22;13809;48.632;11.576;2022-11-15T21:40:11;11.20;42.20
26035;DHT22;13809;48.632;11.576;2022-11-15T21:45:14;11.20;42.20
26035;DHT22;13809;48.632;11.576;2022-11-15T21:50:19;11.20;42.10
26035;DHT22;13809;48.632;11.576;2022-11-15T21:55:22;11.10;42.20
26035;DHT22;13809;48.632;11.576;2022-11-15T22:00:25;11.10;42.00
26035;DHT22;13809;48.632;11.576;2022-11-15T22:05:47;11.10;42.20
26035;DHT22;13809;48.632;11.576;2022-11-15T22:10:50;11.10;42.30
26035;DHT22;13809;48.632;11.576;2022-11-15T22:15:54;11.00;42.10
26035;DHT22;13809;48.632;11.576;2022-11-15T22:21:00;11.00;42.30
26035;DHT22;13809;48.632;11.576;2022-11-15T22:26:04;11.00;42.30
26035;DHT22;13809;48.632;11.576;2022-11-15T22:31:08;11.00;42.20
26035;DHT22;13809;48.632;11.576;2022-11-15T22:36:14;10.90;42.10
26035;DHT22;13809;48.632;11.576;2022-11-15T22:41:17;10.90;42.30
26035;DHT22;13809;48.632;11.576;2022-11-15T22:46:20;10.90;42.30
26035;DHT22;13809;48.632;11.576;2022-11-15T22:51:25;10.90;42.20
26035;DHT22;13809;48.632;11.576;2022-11-15T22:56:28;10.80;42.00
26035;DHT22;13809;48.632;11.576;2022-11-15T23:01:33;10.80;41.90
26035;DHT22;13809;48.632;11.576;2022-11-15T23:06:37;10.70;41.90
26035;DHT22;13809;48.632;11.576;2022-11-15T23:11:41;10.60;41.90
26035;DHT22;13809;48.632;11.576;2022-11-15T23:17:01;10.60;41.90
26035;DHT22;13809;48.632;11.576;2022-11-15T23:22:06;10.50;41.90
26035;DHT22;13809;48.632;11.576;2022-11-15T23:27:26;10.50;41.70
26035;DHT22;13809;48.632;11.576;2022-11-15T23:32:30;10.40;41.20
26035;DHT22;13809;48.632;11.576;2022-11-15T23:37:52;10.30;41.30
26035;DHT22;13809;48.632;11.576;2022-11-15T23:42:57;10.20;41.80
26035;DHT22;13809;48.632;11.576;2022-11-15T23:48:00;10.10;41.90
26035;DHT22;13809;48.632;11.576;2022-11-15T23:53:05;10.10;42.00
26035;DHT22;13809;48.632;11.576;2022-11-15T23:58:08;10.10;42.10
